createdAt,value
2018-06-12T00:01:15.646Z,89.59
2018-06-12T00:04:18.611Z,89.34
2018-06-12T00:07:20.695Z,90.16
2018-06-12T00:10:22.739Z,90.19
2018-06-12T00:13:24.806Z,89.78
2018-06-12T00:16:26.765Z,90.71
2018-06-12T00:19:28.842Z,90.86
2018-06-12T00:22:31.911Z,90.12
2018-06-12T00:25:34.045Z,89.90
2018-06-12T00:28:36.074Z,89.96
2018-06-12T00:31:38.178Z,89.08
2018-06-12T00:34:40.215Z,89.19
2018-06-12T00:37:42.283Z,89.96
2018-06-12T00:40:45.362Z,89.07
2018-06-12T00:43:47.463Z,89.36
2018-06-12T00:46:50.443Z,90.26
2018-06-12T00:49:52.522Z,89.83
2018-06-12T00:52:54.578Z,90.33
2018-06-12T00:55:59.131Z,90.29
2018-06-12T00:59:02.317Z,90.01
2018-06-12T01:02:05.406Z,90.08
2018-06-12T01:05:07.443Z,90.34
2018-06-12T01:08:09.523Z,90.40
2018-06-12T01:11:11.601Z,90.27
2018-06-12T01:14:13.706Z,89.27
2018-06-12T01:17:15.745Z,89.81
2018-06-12T01:20:17.799Z,89.14
2018-06-12T01:23:19.771Z,88.49
2018-06-12T01:26:21.843Z,88.59
2018-06-12T01:29:23.922Z,87.90
2018-06-12T01:32:25.975Z,88.49
2018-06-12T01:35:28.078Z,88.75
2018-06-12T01:38:30.107Z,87.68
2018-06-12T01:41:32.939Z,86.96
2018-06-12T01:44:34.955Z,87.53
2018-06-12T01:47:37.040Z,88.24
2018-06-12T01:50:39.094Z,88.54
2018-06-12T01:53:41.185Z,88.41
2018-06-12T01:56:43.231Z,88.60
2018-06-12T01:59:45.195Z,88.83
2018-06-12T02:02:47.292Z,88.63
2018-06-12T02:05:49.347Z,88.70
2018-06-12T02:08:51.415Z,88.62
2018-06-12T02:11:53.484Z,88.43
2018-06-12T02:14:55.544Z,88.12
2018-06-12T02:17:57.629Z,88.22
2018-06-12T02:20:59.588Z,88.00
2018-06-12T02:24:02.235Z,88.54
2018-06-12T02:27:04.244Z,88.39
2018-06-12T02:30:06.336Z,88.75
2018-06-12T02:33:08.360Z,88.57
2018-06-12T02:36:10.450Z,87.85
2018-06-12T02:39:12.611Z,88.77
2018-06-12T02:42:14.675Z,88.58
2018-06-12T02:45:16.755Z,87.87
2018-06-12T02:48:18.803Z,88.50
2018-06-12T02:51:20.885Z,88.68
2018-06-12T02:54:22.868Z,88.61
2018-06-12T02:57:24.928Z,87.95
2018-06-12T03:00:27.000Z,87.74
2018-06-12T03:03:29.082Z,88.28
2018-06-12T03:06:32.180Z,87.99
2018-06-12T03:09:35.151Z,87.67
2018-06-12T03:12:37.212Z,88.23
2018-06-12T03:15:39.189Z,88.58
2018-06-12T03:18:41.230Z,88.79
2018-06-12T03:21:44.339Z,89.75
2018-06-12T03:24:46.418Z,89.22
2018-06-12T03:27:48.484Z,89.61
2018-06-12T03:30:50.561Z,89.80
2018-06-12T03:33:52.627Z,90.10
2018-06-12T03:36:54.687Z,89.48
2018-06-12T03:39:56.731Z,89.15
2018-06-12T03:42:58.703Z,89.06
2018-06-12T03:46:03.084Z,88.16
2018-06-12T03:49:05.506Z,88.88
2018-06-12T03:52:07.582Z,89.00
2018-06-12T03:55:09.655Z,88.78
2018-06-12T03:58:11.703Z,87.70
2018-06-12T04:01:13.788Z,88.99
2018-06-12T04:04:15.987Z,89.50
2018-06-12T04:07:18.029Z,89.41
2018-06-12T04:10:19.944Z,89.78
2018-06-12T04:13:22.056Z,90.77
2018-06-12T04:16:24.035Z,91.37
2018-06-12T04:19:26.088Z,90.61
2018-06-12T04:22:28.004Z,90.58
2018-06-12T04:25:30.024Z,89.77
2018-06-12T04:28:32.814Z,89.07
2018-06-12T04:31:34.914Z,88.82
2018-06-12T04:34:38.002Z,88.15
2018-06-12T04:37:40.035Z,88.73
2018-06-12T04:40:42.011Z,88.72
2018-06-12T04:43:44.077Z,87.89
2018-06-12T04:46:46.159Z,88.38
2018-06-12T04:49:48.220Z,89.18
2018-06-12T04:52:50.208Z,88.32
2018-06-12T04:55:52.321Z,88.57
2018-06-12T04:58:54.338Z,87.70
2018-06-12T05:01:58.119Z,88.00
2018-06-12T05:05:00.225Z,88.03
2018-06-12T05:08:02.987Z,87.04
2018-06-12T05:11:05.160Z,87.05
2018-06-12T05:14:07.343Z,86.73
2018-06-12T05:17:09.411Z,88.44
2018-06-12T05:20:11.574Z,87.60
2018-06-12T05:23:13.554Z,87.25
2018-06-12T05:26:15.607Z,87.28
2018-06-12T05:29:17.756Z,87.19
2018-06-12T05:32:19.831Z,86.62
2018-06-12T05:35:21.898Z,87.77
2018-06-12T05:38:24.011Z,87.86
2018-06-12T05:41:26.054Z,86.53
2018-06-12T05:44:28.256Z,87.87
2018-06-12T05:47:30.400Z,88.17
2018-06-12T05:50:32.455Z,86.53
2018-06-12T05:53:34.563Z,88.23
2018-06-12T05:56:36.775Z,87.10
2018-06-12T05:59:38.891Z,86.32
2018-06-12T06:02:40.965Z,86.40
2018-06-12T06:05:43.110Z,85.95
2018-06-12T06:08:45.238Z,87.14
2018-06-12T06:11:47.345Z,86.52
2018-06-12T06:14:49.411Z,86.16
2018-06-12T06:17:51.347Z,86.25
2018-06-12T06:20:53.340Z,86.82
2018-06-12T06:23:55.415Z,86.22
2018-06-12T06:26:57.491Z,85.19
2018-06-12T06:30:00.595Z,86.18
2018-06-12T06:33:02.547Z,85.72
2018-06-12T06:36:06.682Z,86.50
2018-06-12T06:39:08.753Z,86.00
2018-06-12T06:42:10.803Z,87.50
2018-06-12T06:45:12.879Z,87.20
2018-06-12T06:48:14.925Z,87.34
2018-06-12T06:51:16.845Z,86.36
2018-06-12T06:54:18.881Z,86.51
2018-06-12T06:57:21.028Z,87.29
2018-06-12T07:00:23.035Z,86.02
2018-06-12T07:03:26.142Z,87.23
2018-06-12T07:06:28.243Z,86.45
2018-06-12T07:09:30.346Z,86.86
2018-06-12T07:12:33.439Z,86.81
2018-06-12T07:15:35.503Z,85.89
2018-06-12T07:18:37.566Z,84.88
2018-06-12T07:21:39.586Z,84.92
2018-06-12T07:24:41.571Z,84.62
2018-06-12T07:27:43.714Z,84.40
2018-06-12T07:30:45.719Z,84.53
2018-06-12T07:33:47.711Z,85.17
2018-06-12T07:36:51.295Z,85.25
2018-06-12T07:39:53.380Z,85.23
2018-06-12T07:42:56.021Z,84.95
2018-06-12T07:45:58.052Z,84.95
2018-06-12T07:49:00.124Z,84.29
2018-06-12T07:52:02.192Z,83.60
2018-06-12T07:55:04.267Z,84.51
2018-06-12T07:58:07.337Z,84.51
2018-06-12T08:01:09.387Z,84.26
2018-06-12T08:04:11.370Z,85.40
2018-06-12T08:07:13.331Z,84.83
2018-06-12T08:10:15.411Z,85.78
2018-06-12T08:13:17.475Z,86.56
2018-06-12T08:16:19.571Z,85.76
2018-06-12T08:19:21.617Z,84.87
2018-06-12T08:22:24.059Z,85.72
2018-06-12T08:25:26.214Z,85.53
2018-06-12T08:28:29.232Z,84.90
2018-06-12T08:31:31.218Z,85.90
2018-06-12T08:34:33.310Z,84.99
2018-06-12T08:37:35.266Z,86.13
2018-06-12T08:40:37.444Z,85.11
2018-06-12T08:43:39.569Z,85.11
2018-06-12T08:46:41.645Z,85.30
2018-06-12T08:49:43.733Z,85.84
2018-06-12T08:52:45.820Z,87.01
2018-06-12T08:55:47.858Z,88.72
2018-06-12T08:58:49.935Z,87.72
2018-06-12T09:01:51.986Z,90.31
2018-06-12T09:04:54.088Z,92.65
2018-06-12T09:07:56.144Z,91.29
2018-06-12T09:10:58.193Z,91.51
2018-06-12T09:14:00.113Z,91.93
2018-06-12T09:17:03.237Z,90.80
2018-06-12T09:20:05.257Z,90.00
2018-06-12T09:23:07.311Z,89.70
2018-06-12T09:26:09.379Z,90.96
2018-06-12T09:29:12.678Z,91.11
2018-06-12T09:32:14.731Z,92.15
2018-06-12T09:35:16.824Z,93.76
2018-06-12T09:38:18.805Z,92.56
2018-06-12T09:41:20.855Z,93.60
2018-06-12T09:44:22.905Z,93.32
2018-06-12T09:47:25.001Z,92.46
2018-06-12T09:50:27.067Z,92.96
2018-06-12T09:53:29.119Z,92.90
2018-06-12T09:56:31.216Z,92.24
2018-06-12T09:59:33.246Z,91.69
2018-06-12T10:02:35.323Z,91.27
2018-06-12T10:05:37.416Z,90.64
2018-06-12T10:08:39.450Z,92.17
2018-06-12T10:11:42.574Z,92.39
2018-06-12T10:14:44.877Z,90.31
2018-06-12T10:17:46.881Z,93.42
2018-06-12T10:20:48.960Z,93.09
2018-06-12T10:23:51.019Z,92.79
2018-06-12T10:26:53.100Z,93.66
2018-06-12T10:29:55.183Z,91.49
2018-06-12T10:32:57.343Z,91.41
2018-06-12T10:35:59.444Z,91.66
2018-06-12T10:39:02.132Z,92.57
2018-06-12T10:42:04.288Z,92.88
2018-06-12T10:45:06.326Z,93.90
2018-06-12T10:48:09.445Z,92.50
2018-06-12T10:51:13.542Z,93.74
2018-06-12T10:54:15.598Z,93.51
2018-06-12T10:57:17.595Z,94.68
2018-06-12T11:00:19.560Z,94.92
2018-06-12T11:03:21.608Z,93.47
2018-06-12T11:06:23.682Z,93.78
2018-06-12T11:09:25.661Z,93.12
2018-06-12T11:12:27.717Z,93.81
2018-06-12T11:15:31.444Z,92.79
2018-06-12T11:18:33.479Z,94.75
2018-06-12T11:21:35.576Z,94.50
2018-06-12T11:24:37.595Z,94.57
2018-06-12T11:27:39.573Z,93.62
2018-06-12T11:30:43.726Z,92.07
2018-06-12T11:33:45.791Z,91.72
2018-06-12T11:36:47.876Z,91.77
2018-06-12T11:39:50.029Z,91.31
2018-06-12T11:42:52.067Z,90.65
2018-06-12T11:45:54.131Z,89.55
2018-06-12T11:48:56.118Z,89.79
2018-06-12T11:51:58.089Z,89.43
2018-06-12T11:55:01.202Z,86.18
2018-06-12T11:58:03.468Z,87.71
2018-06-12T12:01:05.587Z,89.41
2018-06-12T12:04:07.587Z,90.28
2018-06-12T12:07:09.679Z,88.24
2018-06-12T12:10:11.629Z,88.56
2018-06-12T12:13:13.667Z,89.25
2018-06-12T12:16:15.619Z,88.66
2018-06-12T12:19:18.774Z,89.91
2018-06-12T12:22:20.821Z,89.36
2018-06-12T12:25:24.939Z,90.45
2018-06-12T12:28:27.029Z,89.42
2018-06-12T12:31:29.131Z,88.01
2018-06-12T12:34:32.199Z,87.97
2018-06-12T12:37:34.458Z,89.04
2018-06-12T12:40:36.529Z,89.66
2018-06-12T12:43:38.688Z,90.09
2018-06-12T12:46:40.767Z,87.60
2018-06-12T12:49:44.892Z,82.75
2018-06-12T12:52:46.947Z,84.07
2018-06-12T12:55:49.106Z,85.28
2018-06-12T12:58:51.149Z,84.74
2018-06-12T13:01:53.103Z,83.46
2018-06-12T13:04:55.183Z,85.94
2018-06-12T13:07:57.273Z,84.69
2018-06-12T13:10:59.346Z,85.16
2018-06-12T13:14:02.200Z,85.17
2018-06-12T13:17:04.218Z,84.01
2018-06-12T13:20:06.681Z,83.74
2018-06-12T13:23:08.891Z,83.40
2018-06-12T13:26:10.919Z,85.22
2018-06-12T13:29:12.990Z,81.46
2018-06-12T13:32:15.298Z,81.85
2018-06-12T13:35:17.448Z,81.73
2018-06-12T13:38:19.502Z,82.61
2018-06-12T13:41:21.600Z,79.46
2018-06-12T13:44:23.971Z,80.76
2018-06-12T13:47:26.032Z,79.22
2018-06-12T13:50:28.943Z,79.66
2018-06-12T13:53:31.994Z,80.87
2018-06-12T13:56:34.050Z,81.08
2018-06-12T13:59:36.253Z,83.08
2018-06-12T14:02:38.323Z,81.58
2018-06-12T14:05:40.493Z,81.48
2018-06-12T14:08:42.559Z,83.02
2018-06-12T14:11:44.615Z,83.24
2018-06-12T14:14:46.808Z,82.04
2018-06-12T14:17:48.909Z,83.47
2018-06-12T14:20:50.940Z,83.91
2018-06-12T14:23:53.180Z,82.86
2018-06-12T14:26:55.239Z,82.65
2018-06-12T14:29:57.348Z,83.28
2018-06-12T14:32:59.388Z,83.12
2018-06-12T14:36:02.490Z,83.65
2018-06-12T14:39:07.364Z,83.94
2018-06-12T14:42:09.376Z,82.89
2018-06-12T14:45:11.586Z,80.97
2018-06-12T14:48:13.645Z,81.32
2018-06-12T14:51:15.696Z,81.83
2018-06-12T14:54:17.758Z,80.56
2018-06-12T14:57:19.869Z,79.41
2018-06-12T15:00:21.853Z,79.73
2018-06-12T15:03:24.901Z,80.55
2018-06-12T15:06:26.972Z,80.39
2018-06-12T15:09:29.068Z,81.11
2018-06-12T15:12:32.268Z,81.50
2018-06-12T15:15:34.425Z,81.79
2018-06-12T15:18:36.475Z,81.92
2018-06-12T15:21:38.542Z,81.99
2018-06-12T15:24:41.653Z,81.29
2018-06-12T15:27:43.692Z,82.75
2018-06-12T15:30:45.868Z,82.58
2018-06-12T15:33:47.940Z,81.94
2018-06-12T15:36:50.025Z,81.64
2018-06-12T15:39:52.174Z,81.76
2018-06-12T15:42:54.366Z,81.34
2018-06-12T15:45:56.416Z,82.42
2018-06-12T15:48:58.403Z,82.51
2018-06-12T15:52:00.466Z,82.69
2018-06-12T15:55:03.562Z,82.99
2018-06-12T15:58:05.756Z,83.03
2018-06-12T16:01:08.830Z,83.12
2018-06-12T16:04:11.943Z,83.30
2018-06-12T16:07:13.985Z,82.36
2018-06-12T16:10:16.031Z,82.16
2018-06-12T16:13:18.002Z,82.02
2018-06-12T16:16:21.136Z,82.00
2018-06-12T16:19:23.217Z,81.50
2018-06-12T16:22:25.276Z,81.83
2018-06-12T16:25:27.411Z,81.61
2018-06-12T16:28:30.618Z,80.16
2018-06-12T16:31:32.677Z,79.94
2018-06-12T16:34:34.736Z,79.50
2018-06-12T16:37:36.912Z,78.44
2018-06-12T16:40:38.999Z,79.33
2018-06-12T16:43:41.151Z,78.38
2018-06-12T16:46:43.230Z,78.88
2018-06-12T16:49:45.279Z,78.51
2018-06-12T16:52:47.359Z,78.77
2018-06-12T16:55:49.445Z,78.92
2018-06-12T16:58:51.434Z,78.48
2018-06-12T17:01:53.571Z,77.41
2018-06-12T17:04:55.646Z,77.70
2018-06-12T17:07:57.780Z,76.96
2018-06-12T17:11:00.219Z,77.30
2018-06-12T17:14:02.597Z,76.84
2018-06-12T17:17:04.867Z,76.37
2018-06-12T17:20:06.892Z,76.35
2018-06-12T17:23:08.843Z,75.76
2018-06-12T17:26:10.971Z,75.02
2018-06-12T17:29:13.096Z,75.02
2018-06-12T17:32:15.236Z,74.85
2018-06-12T17:35:17.316Z,74.04
2018-06-12T17:38:19.471Z,75.11
2018-06-12T17:41:21.626Z,74.71
2018-06-12T17:44:23.708Z,73.88
2018-06-12T17:47:25.856Z,73.41
2018-06-12T17:50:27.955Z,74.33
2018-06-12T17:53:31.326Z,73.48
2018-06-12T17:56:33.287Z,73.00
2018-06-12T17:59:35.326Z,73.65
2018-06-12T18:02:37.416Z,72.72
2018-06-12T18:05:39.462Z,73.93
2018-06-12T18:08:41.399Z,73.35
2018-06-12T18:11:43.531Z,73.81
2018-06-12T18:14:45.903Z,74.29
2018-06-12T18:17:48.052Z,72.87
2018-06-12T18:20:50.159Z,73.62
2018-06-12T18:23:52.148Z,73.02
2018-06-12T18:26:55.347Z,73.05
2018-06-12T18:29:57.323Z,73.72
2018-06-12T18:32:59.428Z,73.10
2018-06-12T18:36:01.476Z,73.12
2018-06-12T18:39:06.690Z,73.01
2018-06-12T18:42:09.204Z,72.63
2018-06-12T18:45:12.108Z,72.07
2018-06-12T18:48:14.259Z,72.42
2018-06-12T18:51:16.612Z,71.87
2018-06-12T18:54:18.679Z,71.79
2018-06-12T18:57:20.639Z,72.16
2018-06-12T19:00:22.763Z,72.42
2018-06-12T19:03:24.821Z,71.40
2018-06-12T19:06:26.882Z,71.88
2018-06-12T19:09:28.957Z,71.59
2018-06-12T19:12:30.994Z,71.37
2018-06-12T19:15:33.098Z,71.59
2018-06-12T19:18:35.140Z,71.61
2018-06-12T19:21:39.294Z,71.83
2018-06-12T19:24:41.562Z,72.31
2018-06-12T19:27:43.563Z,72.27
2018-06-12T19:30:46.612Z,72.45
2018-06-12T19:33:48.665Z,72.86
2018-06-12T19:36:50.739Z,72.86
2018-06-12T19:39:52.818Z,73.13
2018-06-12T19:42:56.122Z,73.35
2018-06-12T19:45:58.159Z,72.69
2018-06-12T19:49:00.155Z,72.71
2018-06-12T19:52:02.206Z,73.34
2018-06-12T19:55:04.332Z,72.86
2018-06-12T19:58:06.339Z,72.35
2018-06-12T20:01:08.449Z,72.84
2018-06-12T20:04:10.443Z,73.16
2018-06-12T20:07:12.683Z,73.35
2018-06-12T20:10:15.267Z,73.08
2018-06-12T20:13:17.223Z,73.00
2018-06-12T20:16:19.729Z,73.58
2018-06-12T20:19:22.279Z,73.30
2018-06-12T20:22:25.835Z,73.39
2018-06-12T20:25:28.262Z,73.08
2018-06-12T20:28:30.300Z,73.60
2018-06-12T20:31:32.882Z,73.14
2018-06-12T20:34:35.281Z,72.77
2018-06-12T20:37:37.314Z,72.87
2018-06-12T20:40:39.401Z,72.50
2018-06-12T20:43:42.897Z,72.38
2018-06-12T20:46:45.447Z,72.24
2018-06-12T20:49:47.958Z,72.28
2018-06-12T20:52:50.407Z,71.66
2018-06-12T20:55:53.016Z,71.32
2018-06-12T20:58:56.443Z,71.81
2018-06-12T21:01:58.454Z,71.80
2018-06-12T21:05:01.008Z,72.12
2018-06-12T21:08:03.059Z,71.85
2018-06-12T21:11:06.022Z,71.89
2018-06-12T21:14:09.562Z,72.04
2018-06-12T21:17:12.125Z,71.75
2018-06-12T21:20:15.128Z,71.94
2018-06-12T21:23:17.171Z,72.37
2018-06-12T21:26:21.642Z,72.00
2018-06-12T21:29:25.121Z,73.09
2018-06-12T21:32:27.720Z,73.64
2018-06-12T21:35:30.258Z,73.73
2018-06-12T21:38:32.610Z,73.94
2018-06-12T21:41:35.235Z,73.87
2018-06-12T21:44:37.686Z,74.06
2018-06-12T21:47:39.760Z,74.28
2018-06-12T21:50:42.287Z,74.18
2018-06-12T21:53:44.711Z,74.05
2018-06-12T21:56:46.776Z,74.33
2018-06-12T21:59:49.307Z,74.16
2018-06-12T22:02:51.448Z,74.18
2018-06-12T22:05:53.835Z,73.96
2018-06-12T22:08:57.337Z,73.96
2018-06-12T22:11:59.486Z,73.77
2018-06-12T22:15:01.939Z,73.66
2018-06-12T22:18:04.956Z,73.73
2018-06-12T22:21:07.530Z,73.86
2018-06-12T22:24:09.487Z,74.01
2018-06-12T22:27:12.511Z,73.73
2018-06-12T22:30:14.949Z,72.57
2018-06-12T22:33:17.057Z,73.20
2018-06-12T22:36:19.619Z,73.15
2018-06-12T22:39:22.119Z,72.80
2018-06-12T22:42:25.641Z,72.57
2018-06-12T22:45:28.229Z,72.52
2018-06-12T22:48:30.672Z,71.35
2018-06-12T22:51:33.158Z,71.47
2018-06-12T22:54:35.829Z,71.05
2018-06-12T22:57:38.229Z,71.69
2018-06-12T23:00:40.777Z,72.03
2018-06-12T23:03:43.279Z,71.37
2018-06-12T23:06:45.844Z,71.64
2018-06-12T23:09:48.195Z,70.74
2018-06-12T23:12:50.134Z,70.52
2018-06-12T23:15:52.266Z,69.02
2018-06-12T23:18:54.321Z,69.08
2018-06-12T23:21:57.563Z,68.47
2018-06-12T23:24:59.704Z,68.35
2018-06-12T23:28:01.739Z,68.11
2018-06-12T23:31:03.815Z,67.61
2018-06-12T23:34:06.163Z,67.77
2018-06-12T23:37:08.279Z,67.73
2018-06-12T23:40:11.371Z,67.21
2018-06-12T23:43:13.407Z,66.75
2018-06-12T23:46:15.481Z,66.43
2018-06-12T23:49:17.608Z,66.33
2018-06-12T23:52:19.615Z,66.47
2018-06-12T23:55:21.695Z,66.68
2018-06-12T23:58:23.775Z,66.41
